createdAt,value
2022-11-14T00:00:53.179Z,17.35
2022-11-14T00:03:41.398Z,21.08
2022-11-14T00:06:27.978Z,16.33
2022-11-14T00:09:14.547Z,18.58
2022-11-14T00:12:01.545Z,22.17
2022-11-14T00:14:48.008Z,23.13
2022-11-14T00:17:34.820Z,20.77
2022-11-14T00:20:22.603Z,17.95
2022-11-14T00:23:09.456Z,17.83
2022-11-14T00:25:55.869Z,13.52
2022-11-14T00:28:42.518Z,16.63
2022-11-14T00:31:29.159Z,22.23
2022-11-14T00:34:16.211Z,19.20
2022-11-14T00:37:04.336Z,14.27
2022-11-14T00:39:50.667Z,13.02
2022-11-14T00:42:37.079Z,15.73
2022-11-14T00:45:23.858Z,16.98
2022-11-14T00:48:10.457Z,19.23
2022-11-14T00:50:57.025Z,18.02
2022-11-14T00:53:44.949Z,15.18
2022-11-14T00:56:31.744Z,17.77
2022-11-14T00:59:18.399Z,15.88
2022-11-14T01:02:04.885Z,19.45
2022-11-14T01:04:51.665Z,15.00
2022-11-14T01:07:38.259Z,13.43
2022-11-14T01:10:26.176Z,16.50
2022-11-14T01:13:13.468Z,19.13
2022-11-14T01:16:02.474Z,13.38
2022-11-14T01:18:49.306Z,18.23
2022-11-14T01:21:36.107Z,14.52
2022-11-14T01:24:22.966Z,25.50
2022-11-14T01:27:10.969Z,18.27
2022-11-14T01:29:57.638Z,20.33
2022-11-14T01:32:44.586Z,16.65
2022-11-14T01:35:31.648Z,19.35
2022-11-14T01:38:18.086Z,17.20
2022-11-14T01:41:05.547Z,24.08
2022-11-14T01:43:53.547Z,17.13
2022-11-14T01:46:43.128Z,18.98
2022-11-14T01:49:37.088Z,17.95
2022-11-14T01:52:27.586Z,16.40
2022-11-14T01:55:14.795Z,18.17
2022-11-14T01:58:02.048Z,18.88
2022-11-14T02:00:50.198Z,14.73
2022-11-14T02:03:40.948Z,15.60
2022-11-14T02:06:31.398Z,17.35
2022-11-14T02:09:18.157Z,15.38
2022-11-14T02:12:08.497Z,18.75
2022-11-14T02:14:58.729Z,15.50
2022-11-14T02:17:46.776Z,15.48
2022-11-14T02:20:38.566Z,21.00
2022-11-14T02:23:27.893Z,19.42
2022-11-14T02:26:14.536Z,17.30
2022-11-14T02:29:01.056Z,17.40
2022-11-14T02:31:47.786Z,16.60
2022-11-14T02:34:34.688Z,20.55
2022-11-14T02:37:22.406Z,25.65
2022-11-14T02:40:10.386Z,22.50
2022-11-14T02:42:56.784Z,16.98
2022-11-14T02:45:43.327Z,23.20
2022-11-14T02:48:30.373Z,22.42
2022-11-14T02:51:17.096Z,17.77
2022-11-14T02:54:05.167Z,17.88
2022-11-14T02:56:51.617Z,20.00
2022-11-14T02:59:38.376Z,21.85
2022-11-14T03:02:24.946Z,23.27
2022-11-14T03:05:11.527Z,18.27
2022-11-14T03:07:58.367Z,20.77
2022-11-14T03:10:46.527Z,21.02
2022-11-14T03:13:33.248Z,19.63
2022-11-14T03:16:20.045Z,23.30
2022-11-14T03:19:06.586Z,23.88
2022-11-14T03:21:53.097Z,19.02
2022-11-14T03:24:39.927Z,20.20
2022-11-14T03:27:27.757Z,21.50
2022-11-14T03:30:14.976Z,19.60
2022-11-14T03:33:01.737Z,20.30
2022-11-14T03:35:50.588Z,17.85
2022-11-14T03:38:37.570Z,24.10
2022-11-14T03:41:24.422Z,21.27
2022-11-14T03:44:12.681Z,24.45
2022-11-14T03:46:59.161Z,18.13
2022-11-14T03:49:45.796Z,21.63
2022-11-14T03:52:32.503Z,14.70
2022-11-14T03:55:19.192Z,20.85
2022-11-14T03:58:06.092Z,17.02
2022-11-14T04:00:55.920Z,15.38
2022-11-14T04:03:42.862Z,20.00
2022-11-14T04:06:29.433Z,21.85
2022-11-14T04:09:16.021Z,17.52
2022-11-14T04:12:02.829Z,19.83
2022-11-14T04:14:49.533Z,22.35
2022-11-14T04:17:39.994Z,18.90
2022-11-14T04:20:26.952Z,21.92
2022-11-14T04:23:13.692Z,21.70
2022-11-14T04:26:00.202Z,15.40
2022-11-14T04:28:46.819Z,14.88
2022-11-14T04:31:33.645Z,18.38
2022-11-14T04:34:21.613Z,17.20
2022-11-14T04:37:08.231Z,18.65
2022-11-14T04:39:58.576Z,17.30
2022-11-14T04:42:44.963Z,18.98
2022-11-14T04:45:31.528Z,22.95
2022-11-14T04:48:18.113Z,15.02
2022-11-14T04:51:06.523Z,13.30
2022-11-14T04:53:52.892Z,15.15
2022-11-14T04:56:39.503Z,16.55
2022-11-14T04:59:26.413Z,15.25
2022-11-14T05:02:13.081Z,14.05
2022-11-14T05:04:59.783Z,12.95
2022-11-14T05:07:47.872Z,13.70
2022-11-14T05:10:34.561Z,14.10
2022-11-14T05:13:21.222Z,13.25
2022-11-14T05:16:08.181Z,13.13
2022-11-14T05:18:55.431Z,11.68
2022-11-14T05:21:41.905Z,14.93
2022-11-14T05:24:29.961Z,13.60
2022-11-14T05:27:16.548Z,11.55
2022-11-14T05:30:03.320Z,15.50
2022-11-14T05:32:50.132Z,11.30
2022-11-14T05:35:36.924Z,9.15
2022-11-14T05:38:23.554Z,12.13
2022-11-14T05:41:13.603Z,13.88
2022-11-14T05:44:00.492Z,13.50
2022-11-14T05:46:47.143Z,10.77
2022-11-14T05:49:33.812Z,10.52
2022-11-14T05:52:20.503Z,9.95
2022-11-14T05:55:08.022Z,18.13
2022-11-14T05:57:59.232Z,10.45
2022-11-14T06:00:53.488Z,14.18
2022-11-14T06:03:42.463Z,11.38
2022-11-14T06:06:28.862Z,14.23
2022-11-14T06:09:15.652Z,12.00
2022-11-14T06:12:06.100Z,11.98
2022-11-14T06:14:54.023Z,11.15
2022-11-14T06:17:40.391Z,10.75
2022-11-14T06:20:27.302Z,13.02
2022-11-14T06:23:13.958Z,13.00
2022-11-14T06:26:01.494Z,12.77
2022-11-14T06:28:49.383Z,12.30
2022-11-14T06:31:37.304Z,13.43
2022-11-14T06:34:23.533Z,11.85
2022-11-14T06:37:10.203Z,13.43
2022-11-14T06:39:57.005Z,12.73
2022-11-14T06:42:43.602Z,12.10
2022-11-14T06:45:30.423Z,11.73
2022-11-14T06:48:18.571Z,13.13
2022-11-14T06:51:06.042Z,10.45
2022-11-14T06:53:52.722Z,14.02
2022-11-14T06:56:39.440Z,10.80
2022-11-14T06:59:26.115Z,14.05
2022-11-14T07:02:17.782Z,15.70
2022-11-14T07:05:09.812Z,12.45
2022-11-14T07:07:58.762Z,12.90
2022-11-14T07:10:45.505Z,10.70
2022-11-14T07:13:33.233Z,12.10
2022-11-14T07:16:19.832Z,12.90
2022-11-14T07:19:09.200Z,14.07
2022-11-14T07:21:57.003Z,14.90
2022-11-14T07:24:43.523Z,18.67
2022-11-14T07:27:30.421Z,15.50
2022-11-14T07:30:17.313Z,12.95
2022-11-14T07:33:04.204Z,11.23
2022-11-14T07:35:52.393Z,10.88
2022-11-14T07:38:41.013Z,12.68
2022-11-14T07:41:27.403Z,15.05
2022-11-14T07:44:14.149Z,14.88
2022-11-14T07:47:00.781Z,13.32
2022-11-14T07:49:47.536Z,9.13
2022-11-14T07:52:34.317Z,11.02
2022-11-14T07:55:22.952Z,11.32
2022-11-14T07:58:09.531Z,9.57
2022-11-14T08:00:56.402Z,9.88
2022-11-14T08:03:46.127Z,10.18
2022-11-14T08:06:33.227Z,10.10
2022-11-14T08:09:19.833Z,9.85
2022-11-14T08:12:08.032Z,13.40
2022-11-14T08:14:54.505Z,12.10
2022-11-14T08:17:41.591Z,8.88
2022-11-14T08:20:28.925Z,10.73
2022-11-14T08:23:16.164Z,14.63
2022-11-14T08:26:02.634Z,11.93
2022-11-14T08:28:54.015Z,9.65
2022-11-14T08:31:41.073Z,10.88
2022-11-14T08:34:29.175Z,9.10
2022-11-14T08:37:15.990Z,11.55
2022-11-14T08:40:02.350Z,11.80
2022-11-14T08:42:49.176Z,11.13
2022-11-14T08:45:37.298Z,7.50
2022-11-14T08:48:24.352Z,10.60
2022-11-14T08:51:11.211Z,8.95
2022-11-14T08:53:57.869Z,9.65
2022-11-14T08:56:44.621Z,8.80
2022-11-14T08:59:31.531Z,10.27
2022-11-14T09:02:19.504Z,11.07
2022-11-14T09:05:06.531Z,8.88
2022-11-14T09:07:53.539Z,10.90
2022-11-14T09:10:40.193Z,10.82
2022-11-14T09:13:27.742Z,11.00
2022-11-14T09:16:14.742Z,13.00
2022-11-14T09:19:02.525Z,12.57
2022-11-14T09:21:48.912Z,9.40
2022-11-14T09:24:35.700Z,11.82
2022-11-14T09:27:22.487Z,12.15
2022-11-14T09:30:10.197Z,13.52
2022-11-14T09:33:00.984Z,9.70
2022-11-14T09:35:49.013Z,10.60
2022-11-14T09:38:38.793Z,11.93
2022-11-14T09:41:27.570Z,11.18
2022-11-14T09:44:40.921Z,7.20
2022-11-14T09:47:31.210Z,9.25
2022-11-14T09:50:25.614Z,11.93
2022-11-14T09:53:21.430Z,10.68
2022-11-14T09:56:13.562Z,12.40
2022-11-14T09:59:00.482Z,11.70
2022-11-14T10:01:52.948Z,9.73
2022-11-14T10:04:52.132Z,8.07
2022-11-14T10:07:52.199Z,15.63
2022-11-14T10:10:51.020Z,12.65
2022-11-14T10:13:48.750Z,11.90
2022-11-14T10:16:45.772Z,12.77
2022-11-14T10:19:42.726Z,11.43
2022-11-14T10:22:51.661Z,11.32
2022-11-14T10:25:50.174Z,10.52
2022-11-14T10:28:49.892Z,10.32
2022-11-14T10:31:48.778Z,10.45
2022-11-14T10:34:41.784Z,9.07
2022-11-14T10:37:35.534Z,8.52
2022-11-14T10:40:25.411Z,9.32
2022-11-14T10:43:23.794Z,7.75
2022-11-14T10:46:16.242Z,7.57
2022-11-14T10:49:02.622Z,10.52
2022-11-14T10:51:53.852Z,8.00
2022-11-14T10:54:45.403Z,9.52
2022-11-14T10:57:35.380Z,11.88
2022-11-14T11:00:23.932Z,11.73
2022-11-14T11:03:10.529Z,12.07
2022-11-14T11:05:58.042Z,9.68
2022-11-14T11:09:02.575Z,9.00
2022-11-14T11:14:45.553Z,7.82
2022-11-14T11:17:40.298Z,9.07
2022-11-14T11:20:34.112Z,13.82
2022-11-14T11:23:26.220Z,12.30
2022-11-14T11:26:19.974Z,11.07
2022-11-14T11:29:15.791Z,12.00
2022-11-14T11:32:02.624Z,13.40
2022-11-14T11:34:52.371Z,11.70
2022-11-14T11:37:44.638Z,11.75
2022-11-14T11:40:31.703Z,14.07
2022-11-14T11:43:44.145Z,16.50
2022-11-14T11:46:37.938Z,12.00
2022-11-14T11:49:36.723Z,11.65
2022-11-14T11:52:33.211Z,13.20
2022-11-14T11:55:25.395Z,13.65
2022-11-14T11:58:20.478Z,13.02
2022-11-14T12:01:07.004Z,17.00
2022-11-14T12:03:55.449Z,15.60
2022-11-14T12:06:48.520Z,15.45
2022-11-14T12:13:14.092Z,12.45
2022-11-14T12:16:13.570Z,13.95
2022-11-14T12:19:35.971Z,15.00
2022-11-14T12:22:35.640Z,12.55
2022-11-14T12:25:36.493Z,12.25
2022-11-14T12:28:41.121Z,13.85
2022-11-14T12:31:30.589Z,13.82
2022-11-14T12:34:23.473Z,15.05
2022-11-14T12:37:16.258Z,12.30
2022-11-14T12:40:06.184Z,19.35
2022-11-14T12:42:54.502Z,15.48
2022-11-14T12:46:00.671Z,16.50
2022-11-14T12:48:47.882Z,15.32
2022-11-14T12:51:51.040Z,17.98
2022-11-14T12:54:45.021Z,14.40
2022-11-14T12:57:58.729Z,16.08
2022-11-14T13:01:07.371Z,14.32
2022-11-14T13:04:09.721Z,11.10
2022-11-14T13:07:13.497Z,10.82
2022-11-14T13:10:13.954Z,16.05
2022-11-14T13:13:24.702Z,16.30
2022-11-14T13:16:42.164Z,14.02
2022-11-14T13:19:46.822Z,13.95
2022-11-14T13:25:25.637Z,17.08
2022-11-14T13:28:49.483Z,15.57
2022-11-14T13:31:55.922Z,13.02
2022-11-14T13:34:47.450Z,15.95
2022-11-14T13:37:52.524Z,17.65
2022-11-14T13:40:45.051Z,16.60
2022-11-14T13:43:47.883Z,14.48
2022-11-14T13:46:53.943Z,16.38
2022-11-14T13:49:57.890Z,15.02
2022-11-14T13:52:46.660Z,13.02
2022-11-14T13:55:48.065Z,18.55
2022-11-14T13:58:54.526Z,15.10
2022-11-14T14:02:02.429Z,13.52
2022-11-14T14:05:01.577Z,15.27
2022-11-14T14:08:02.921Z,14.57
2022-11-14T14:11:06.562Z,16.15
2022-11-14T14:14:04.621Z,15.57
2022-11-14T14:16:57.162Z,17.27
2022-11-14T14:19:57.042Z,15.38
2022-11-14T14:22:52.765Z,17.83
2022-11-14T14:25:49.033Z,16.20
2022-11-14T14:28:47.274Z,14.23
2022-11-14T14:31:38.359Z,16.13
2022-11-14T14:34:28.158Z,15.23
2022-11-14T14:37:19.792Z,14.38
2022-11-14T14:40:11.143Z,15.95
2022-11-14T14:42:58.422Z,15.55
2022-11-14T14:45:48.423Z,15.45
2022-11-14T14:48:37.613Z,17.23
2022-11-14T14:51:32.354Z,12.27
2022-11-14T14:54:24.393Z,11.90
2022-11-14T14:57:23.059Z,16.08
2022-11-14T15:00:20.021Z,10.68
2022-11-14T15:03:07.001Z,12.18
2022-11-14T15:05:59.683Z,11.43
2022-11-14T15:08:47.576Z,11.27
2022-11-14T15:11:36.292Z,9.82
2022-11-14T15:14:26.151Z,12.48
2022-11-14T15:17:13.753Z,12.43
2022-11-14T15:20:00.542Z,8.10
2022-11-14T15:23:05.234Z,14.93
2022-11-14T15:26:03.603Z,12.15
2022-11-14T15:28:51.697Z,9.40
2022-11-14T15:31:38.922Z,12.18
2022-11-14T15:34:28.503Z,12.98
2022-11-14T15:37:23.243Z,11.07
2022-11-14T15:40:18.602Z,10.05
2022-11-14T15:43:39.021Z,11.35
2022-11-14T15:46:40.352Z,16.65
2022-11-14T15:49:28.382Z,18.13
2022-11-14T15:52:23.210Z,18.23
2022-11-14T15:55:15.524Z,16.23
2022-11-14T16:01:20.076Z,16.90
2022-11-14T16:04:11.492Z,16.40
2022-11-14T16:06:58.120Z,21.42
2022-11-14T16:09:45.082Z,20.33
2022-11-14T16:12:31.582Z,20.13
2022-11-14T16:15:19.629Z,19.45
2022-11-14T16:18:07.155Z,20.13
2022-11-14T16:20:58.798Z,14.93
2022-11-14T16:23:45.427Z,19.45
2022-11-14T16:26:33.025Z,14.52
2022-11-14T16:29:20.012Z,20.45
2022-11-14T16:32:06.884Z,17.45
2022-11-14T16:34:53.479Z,21.45
2022-11-14T16:37:41.552Z,20.35
2022-11-14T16:40:29.294Z,22.92
2022-11-14T16:43:16.094Z,20.75
2022-11-14T16:46:05.732Z,25.17
2022-11-14T16:48:52.465Z,19.83
2022-11-14T16:51:48.590Z,20.60
2022-11-14T16:54:37.323Z,21.73
2022-11-14T16:57:24.312Z,19.42
2022-11-14T17:00:13.358Z,16.73
2022-11-14T17:02:59.803Z,20.08
2022-11-14T17:05:48.605Z,18.17
2022-11-14T17:08:35.332Z,23.73
2022-11-14T17:11:23.571Z,14.52
2022-11-14T17:14:10.290Z,14.43
2022-11-14T17:17:02.652Z,17.70
2022-11-14T17:19:49.544Z,12.38
2022-11-14T17:22:36.085Z,13.98
2022-11-14T17:25:23.194Z,10.43
2022-11-14T17:28:11.157Z,6.07
2022-11-14T17:30:57.622Z,7.95
2022-11-14T17:33:44.426Z,6.97
2022-11-14T17:36:31.802Z,5.13
2022-11-14T17:39:18.360Z,4.10
2022-11-14T17:42:07.352Z,3.33
2022-11-14T17:44:55.712Z,2.55
2022-11-14T17:47:42.463Z,3.83
2022-11-14T17:50:33.069Z,2.42
2022-11-14T17:53:23.098Z,2.40
2022-11-14T17:56:10.954Z,3.22
2022-11-14T17:58:57.514Z,2.33
2022-11-14T18:01:45.805Z,1.98
2022-11-14T18:04:35.036Z,1.50
2022-11-14T18:07:21.690Z,1.63
2022-11-14T18:10:08.841Z,2.20
2022-11-14T18:12:55.643Z,1.45
2022-11-14T18:15:42.350Z,3.17
2022-11-14T18:18:32.038Z,1.30
2022-11-14T18:21:20.323Z,1.42
2022-11-14T18:24:07.320Z,2.15
2022-11-14T18:26:55.519Z,2.67
2022-11-14T18:29:42.013Z,2.13
2022-11-14T18:32:28.564Z,3.88
2022-11-14T18:35:16.762Z,3.05
2022-11-14T18:38:03.742Z,3.85
2022-11-14T18:40:55.887Z,3.45
2022-11-14T18:43:44.673Z,3.58
2022-11-14T18:46:37.112Z,3.53
2022-11-14T18:49:23.880Z,3.58
2022-11-14T18:52:17.232Z,3.80
2022-11-14T18:55:05.102Z,5.07
2022-11-14T18:57:51.543Z,3.35
2022-11-14T19:00:38.282Z,3.38
2022-11-14T19:03:25.201Z,3.83
2022-11-14T19:06:13.301Z,3.38
2022-11-14T19:09:05.582Z,3.67
2022-11-14T19:12:12.551Z,7.05
2022-11-14T19:14:58.911Z,5.32
2022-11-14T19:17:48.470Z,2.75
2022-11-14T19:20:35.003Z,2.97
2022-11-14T19:23:21.584Z,3.97
2022-11-14T19:26:11.063Z,2.13
2022-11-14T19:28:58.631Z,1.17
2022-11-14T19:31:45.099Z,4.10
2022-11-14T19:34:31.720Z,3.08
2022-11-14T19:37:18.491Z,1.23
2022-11-14T19:40:05.861Z,0.50
2022-11-14T19:42:56.039Z,0.50
2022-11-14T19:45:42.517Z,0.50
2022-11-14T19:48:29.237Z,0.60
2022-11-14T19:51:18.093Z,2.38
2022-11-14T19:54:05.273Z,0.20
2022-11-14T19:56:51.745Z,2.05
2022-11-14T19:59:39.714Z,1.10
2022-11-14T20:02:28.601Z,1.88
2022-11-14T20:05:15.314Z,0.15
2022-11-14T20:08:02.342Z,0.20
2022-11-14T20:10:56.504Z,2.05
2022-11-14T20:13:44.722Z,2.50
2022-11-14T20:16:34.433Z,0.30
2022-11-14T20:19:20.903Z,0.47
2022-11-14T20:22:07.781Z,1.60
2022-11-14T20:24:54.473Z,0.17
2022-11-14T20:27:41.203Z,0.80
2022-11-14T20:30:28.116Z,2.50
2022-11-14T20:33:16.204Z,0.73
2022-11-14T20:36:03.971Z,0.30
2022-11-14T20:38:52.067Z,1.60
2022-11-14T20:41:38.701Z,1.65
2022-11-14T20:44:25.347Z,1.45
2022-11-14T20:47:11.998Z,1.63
2022-11-14T20:50:00.206Z,1.75
2022-11-14T20:52:47.798Z,0.55
2022-11-14T20:55:34.381Z,2.08
2022-11-14T20:58:21.360Z,0.30
2022-11-14T21:01:08.300Z,0.57
2022-11-14T21:03:54.791Z,1.52
2022-11-14T21:06:42.862Z,0.38
2022-11-14T21:09:29.338Z,0.28
2022-11-14T21:12:15.998Z,0.30
2022-11-14T21:15:02.899Z,1.23
2022-11-14T21:17:49.332Z,1.05
2022-11-14T21:20:36.259Z,0.82
2022-11-14T21:23:24.204Z,0.70
2022-11-14T21:26:13.359Z,0.63
2022-11-14T21:29:02.691Z,1.23
2022-11-14T21:31:49.440Z,1.40
2022-11-14T21:34:36.111Z,0.73
2022-11-14T21:37:22.839Z,7.07
2022-11-14T21:40:11.966Z,2.67
2022-11-14T21:42:58.711Z,1.83
2022-11-14T21:45:45.901Z,2.47
2022-11-14T21:48:38.757Z,2.22
2022-11-14T21:51:29.523Z,1.85
2022-11-14T21:54:16.309Z,1.50
2022-11-14T21:57:09.549Z,1.73
2022-11-14T21:59:56.742Z,2.53
2022-11-14T22:03:01.053Z,1.15
2022-11-14T22:05:47.593Z,2.40
2022-11-14T22:08:34.430Z,1.15
2022-11-14T22:11:20.974Z,4.70
2022-11-14T22:14:09.071Z,4.68
2022-11-14T22:16:55.602Z,1.90
2022-11-14T22:19:42.206Z,3.45
2022-11-14T22:22:28.701Z,1.23
2022-11-14T22:25:15.391Z,2.00
2022-11-14T22:28:01.995Z,1.23
2022-11-14T22:30:50.433Z,3.17
2022-11-14T22:33:41.508Z,2.33
2022-11-14T22:36:33.041Z,3.22
2022-11-14T22:39:19.729Z,1.50
2022-11-14T22:42:06.641Z,3.70
2022-11-14T22:44:53.111Z,3.40
2022-11-14T22:47:41.222Z,2.25
2022-11-14T22:50:27.641Z,1.88
2022-11-14T22:53:14.320Z,3.08
2022-11-14T22:56:01.842Z,2.83
2022-11-14T22:58:48.811Z,1.85
2022-11-14T23:01:35.524Z,2.55
2022-11-14T23:04:23.503Z,2.15
2022-11-14T23:07:09.957Z,2.20
2022-11-14T23:09:56.551Z,1.55
2022-11-14T23:12:43.200Z,1.63
2022-11-14T23:15:30.145Z,1.58
2022-11-14T23:18:17.001Z,3.00
2022-11-14T23:21:06.524Z,0.80
2022-11-14T23:23:54.524Z,1.55
2022-11-14T23:26:41.282Z,1.08
2022-11-14T23:29:27.840Z,1.05
2022-11-14T23:32:14.693Z,0.52
2022-11-14T23:35:01.410Z,1.02
2022-11-14T23:37:49.380Z,2.65
2022-11-14T23:40:35.635Z,2.20
2022-11-14T23:43:22.781Z,0.57
2022-11-14T23:46:09.760Z,1.13
2022-11-14T23:48:56.673Z,2.58
2022-11-14T23:51:43.412Z,1.02
2022-11-14T23:54:31.591Z,1.27
2022-11-14T23:57:18.018Z,2.08
